Time;durP1;ratioP1;P1;durP2;ratioP2;P2;SDS_P1;SDS_P2;PMS_P1;PMS_P2;Temp;Humidity;BMP_temperature;BMP_pressure;BME280_temperature;BME280_humidity;BME280_pressure;Samples;Min_cycle;Max_cycle;Signal;HPM_P1;HPM_P2
2021/01/04 00:00:45;;;;;;;;;;;26.80;37.40;;;;;;5064672;28;19912;-49
2021/01/04 00:03:29;;;;;;;;;;;26.90;37.30;;;;;;5095857;28;19912;-50
2021/01/04 00:06:07;;;;;;;;;;;26.90;37.00;;;;;;5095936;28;20011;-49
2021/01/04 00:08:37;;;;;;;;;;;26.80;36.90;;;;;;5093983;28;19916;-49
2021/01/04 00:11:06;;;;;;;;;;;26.80;36.80;;;;;;5055522;28;19995;-48
2021/01/04 00:13:34;;;;;;;;;;;26.80;37.00;;;;;;5071028;28;20012;-53
2021/01/04 00:16:18;;;;;;;;;;;26.80;36.90;;;;;;5071008;28;19963;-50
2021/01/04 00:18:43;;;;;;;;;;;26.80;37.00;;;;;;5070556;28;19916;-50
2021/01/04 00:21:12;;;;;;;;;;;26.70;37.10;;;;;;5055303;28;19909;-49
2021/01/04 00:23:46;;;;;;;;;;;26.80;37.20;;;;;;5059877;28;19913;-49
2021/01/04 00:26:13;;;;;;;;;;;26.80;37.20;;;;;;5053808;28;19913;-49
2021/01/04 00:28:38;;;;;;;;;;;26.80;37.20;;;;;;5070394;28;19928;-49
2021/01/04 00:31:04;;;;;;;;;;;26.80;37.20;;;;;;5070383;28;19908;-50
2021/01/04 00:33:34;;;;;;;;;;;26.80;37.30;;;;;;5054906;28;20269;-49
2021/01/04 00:36:00;;;;;;;;;;;26.80;37.30;;;;;;5054769;28;19939;-48
2021/01/04 00:38:46;;;;;;;;;;;26.80;37.30;;;;;;5072690;28;20374;-50
2021/01/04 00:41:15;;;;;;;;;;;26.70;37.30;;;;;;5069987;28;20307;-49
2021/01/04 00:43:44;;;;;;;;;;;26.80;37.30;;;;;;5070416;28;19958;-49
2021/01/04 00:46:10;;;;;;;;;;;26.80;37.40;;;;;;5054303;28;20007;-53
2021/01/04 00:48:37;;;;;;;;;;;26.80;37.30;;;;;;5054835;28;19924;-50
2021/01/04 00:51:07;;;;;;;;;;;26.70;37.90;;;;;;5054818;28;19909;-50
2021/01/04 00:53:33;;;;;;;;;;;26.70;37.30;;;;;;5070101;28;19955;-49
2021/01/04 00:56:05;;;;;;;;;;;26.80;37.40;;;;;;5070776;28;19912;-51
2021/01/04 00:58:44;;;;;;;;;;;26.80;37.40;;;;;;5093722;28;19963;-51
2021/01/04 01:01:12;;;;;;;;;;;26.70;37.40;;;;;;5093639;28;19963;-50
2021/01/04 01:03:38;;;;;;;;;;;26.70;37.50;;;;;;5094794;28;19912;-49
2021/01/04 01:06:23;;;;;;;;;;;26.70;37.50;;;;;;5094805;28;19915;-49
2021/01/04 01:08:54;;;;;;;;;;;26.70;37.50;;;;;;5088175;28;19920;-49
2021/01/04 01:11:39;;;;;;;;;;;26.70;37.50;;;;;;5089123;28;20430;-49
2021/01/04 01:14:18;;;;;;;;;;;26.70;37.60;;;;;;5062748;28;20313;-49
2021/01/04 01:16:47;;;;;;;;;;;26.70;37.60;;;;;;5091946;28;19920;-50
2021/01/04 01:19:27;;;;;;;;;;;26.70;37.50;;;;;;5094165;28;20324;-49
2021/01/04 01:21:53;;;;;;;;;;;26.70;37.60;;;;;;5094456;28;19953;-50
2021/01/04 01:24:18;;;;;;;;;;;26.70;37.60;;;;;;5094492;28;20290;-49
2021/01/04 01:26:49;;;;;;;;;;;26.70;37.60;;;;;;5094079;28;19908;-50
2021/01/04 01:29:20;;;;;;;;;;;26.70;37.60;;;;;;5092577;28;19977;-51
2021/01/04 01:31:56;;;;;;;;;;;26.70;37.60;;;;;;5089212;28;20007;-49
2021/01/04 01:34:42;;;;;;;;;;;26.70;37.60;;;;;;5089317;28;20286;-49
2021/01/04 01:37:07;;;;;;;;;;;26.70;37.60;;;;;;5062419;28;19970;-50
2021/01/04 01:39:52;;;;;;;;;;;26.70;37.70;;;;;;5073659;28;20370;-49
2021/01/04 01:42:36;;;;;;;;;;;26.70;37.60;;;;;;5073475;28;20286;-50
2021/01/04 01:45:11;;;;;;;;;;;26.70;37.60;;;;;;5073801;28;19988;-49
2021/01/04 01:47:46;;;;;;;;;;;26.70;37.60;;;;;;5085816;28;19913;-49
2021/01/04 01:50:23;;;;;;;;;;;26.70;37.70;;;;;;5073375;28;20409;-50
2021/01/04 01:52:54;;;;;;;;;;;26.70;37.60;;;;;;5073377;28;19966;-50
2021/01/04 01:55:19;;;;;;;;;;;26.70;37.60;;;;;;5073775;28;19913;-53
2021/01/04 01:57:45;;;;;;;;;;;26.60;37.60;;;;;;5072935;28;20321;-52
2021/01/04 02:00:22;;;;;;;;;;;26.70;37.70;;;;;;5073499;28;19912;-50
2021/01/04 02:02:59;;;;;;;;;;;26.70;37.70;;;;;;5090329;28;20340;-49
2021/01/04 02:05:43;;;;;;;;;;;26.60;38.30;;;;;;5092566;28;19912;-49
2021/01/04 02:08:09;;;;;;;;;;;26.70;37.70;;;;;;5093615;28;19934;-50
2021/01/04 02:10:36;;;;;;;;;;;26.70;37.80;;;;;;5092126;28;19938;-50
2021/01/04 02:13:08;;;;;;;;;;;26.60;37.70;;;;;;5092476;28;19966;-50
2021/01/04 02:15:42;;;;;;;;;;;26.60;37.80;;;;;;5092705;28;19908;-50
2021/01/04 02:18:28;;;;;;;;;;;26.60;37.70;;;;;;5088955;28;19909;-50
2021/01/04 02:21:12;;;;;;;;;;;26.60;37.70;;;;;;5072667;28;19912;-49
2021/01/04 02:23:56;;;;;;;;;;;26.60;37.70;;;;;;5073336;28;19962;-48
2021/01/04 02:26:23;;;;;;;;;;;26.60;37.80;;;;;;5053201;28;20267;-49
2021/01/04 02:28:52;;;;;;;;;;;26.60;37.80;;;;;;5068210;28;19982;-49
2021/01/04 02:31:18;;;;;;;;;;;26.60;37.70;;;;;;5053216;28;19909;-49
2021/01/04 02:33:43;;;;;;;;;;;26.60;37.70;;;;;;5052809;28;19916;-49
2021/01/04 02:36:09;;;;;;;;;;;26.70;37.80;;;;;;5068647;28;19909;-51
2021/01/04 02:38:35;;;;;;;;;;;26.70;37.80;;;;;;5068290;28;19919;-49
2021/01/04 02:41:00;;;;;;;;;;;26.60;37.80;;;;;;5068396;28;20329;-51
2021/01/04 02:43:26;;;;;;;;;;;26.70;37.80;;;;;;5066400;28;19939;-51
2021/01/04 02:45:51;;;;;;;;;;;26.60;37.70;;;;;;5073788;28;19913;-50
2021/01/04 02:48:35;;;;;;;;;;;26.70;37.70;;;;;;5088596;28;19920;-51
2021/01/04 02:51:07;;;;;;;;;;;26.60;37.70;;;;;;5073043;28;19966;-48
2021/01/04 02:53:41;;;;;;;;;;;26.60;37.80;;;;;;5088630;28;19923;-48
2021/01/04 02:56:25;;;;;;;;;;;26.60;37.80;;;;;;5072685;28;20376;-51
2021/01/04 02:58:51;;;;;;;;;;;26.60;37.80;;;;;;5072706;28;19917;-50
2021/01/04 03:01:17;;;;;;;;;;;26.60;37.80;;;;;;5087026;28;19918;-52
2021/01/04 03:03:43;;;;;;;;;;;26.60;37.90;;;;;;5091555;28;19908;-49
2021/01/04 03:06:09;;;;;;;;;;;26.60;37.80;;;;;;5091508;28;19908;-50
2021/01/04 03:08:34;;;;;;;;;;;26.60;37.70;;;;;;5094973;28;19916;-50
2021/01/04 03:11:00;;;;;;;;;;;26.60;37.80;;;;;;5097077;28;19912;-51
2021/01/04 03:13:25;;;;;;;;;;;26.60;37.80;;;;;;5096701;28;19942;-50
2021/01/04 03:16:11;;;;;;;;;;;26.60;37.80;;;;;;5087893;28;19916;-50
2021/01/04 03:18:37;;;;;;;;;;;26.60;37.80;;;;;;5096195;28;19912;-49
2021/01/04 03:21:03;;;;;;;;;;;26.60;37.80;;;;;;5096908;28;19939;-50
2021/01/04 03:23:29;;;;;;;;;;;26.60;37.80;;;;;;5096479;28;20427;-49
2021/01/04 03:25:56;;;;;;;;;;;26.60;37.80;;;;;;5095390;28;19915;-50
2021/01/04 03:28:28;;;;;;;;;;;26.60;37.80;;;;;;5095090;28;20286;-50
2021/01/04 03:30:54;;;;;;;;;;;26.60;37.80;;;;;;5089515;28;20290;-50
2021/01/04 03:33:19;;;;;;;;;;;26.60;37.90;;;;;;5076313;28;19915;-51
2021/01/04 03:35:45;;;;;;;;;;;26.60;37.80;;;;;;5076337;28;19908;-50
2021/01/04 03:38:11;;;;;;;;;;;26.60;37.90;;;;;;5076044;28;19931;-50
2021/01/04 03:40:37;;;;;;;;;;;26.60;37.90;;;;;;5075120;28;19923;-51
2021/01/04 03:43:03;;;;;;;;;;;26.60;37.80;;;;;;5075792;28;19908;-51
2021/01/04 03:45:28;;;;;;;;;;;26.60;37.80;;;;;;5075858;28;19962;-51
2021/01/04 03:47:53;;;;;;;;;;;26.60;37.80;;;;;;5075707;28;20003;-50
2021/01/04 03:50:19;;;;;;;;;;;26.60;37.80;;;;;;5075985;28;19912;-50
2021/01/04 03:52:44;;;;;;;;;;;26.60;37.70;;;;;;5075975;28;20370;-51
2021/01/04 03:55:10;;;;;;;;;;;26.60;37.70;;;;;;5091242;28;19916;-50
2021/01/04 03:57:36;;;;;;;;;;;26.60;37.80;;;;;;5095796;28;19951;-50
2021/01/04 04:00:03;;;;;;;;;;;26.60;37.80;;;;;;5096050;28;19919;-51
2021/01/04 04:02:28;;;;;;;;;;;26.60;37.80;;;;;;5096166;28;19909;-50
2021/01/04 04:04:54;;;;;;;;;;;26.60;37.80;;;;;;5095891;28;19910;-50
2021/01/04 04:07:19;;;;;;;;;;;26.60;37.80;;;;;;5095658;28;19961;-50
2021/01/04 04:09:45;;;;;;;;;;;26.60;37.80;;;;;;5081040;28;19920;-50
2021/01/04 04:12:11;;;;;;;;;;;26.60;37.80;;;;;;5075654;28;19963;-50
2021/01/04 04:14:36;;;;;;;;;;;26.60;37.80;;;;;;5075373;28;19920;-50
2021/01/04 04:17:02;;;;;;;;;;;26.60;37.80;;;;;;5075210;28;19912;-51
2021/01/04 04:19:27;;;;;;;;;;;26.50;37.80;;;;;;5074693;28;19909;-51
2021/01/04 04:21:53;;;;;;;;;;;26.60;37.80;;;;;;5075362;28;19908;-50
2021/01/04 04:24:18;;;;;;;;;;;26.60;37.70;;;;;;5087777;28;20007;-50
2021/01/04 04:26:44;;;;;;;;;;;26.60;37.80;;;;;;5095654;28;20002;-51
2021/01/04 04:29:09;;;;;;;;;;;26.60;37.80;;;;;;5094837;28;20285;-51
2021/01/04 04:31:40;;;;;;;;;;;26.60;37.70;;;;;;5095487;28;19912;-50
2021/01/04 04:34:05;;;;;;;;;;;26.60;37.70;;;;;;5094317;28;19908;-50
2021/01/04 04:36:31;;;;;;;;;;;26.60;37.70;;;;;;5095177;28;20011;-53
2021/01/04 04:38:56;;;;;;;;;;;26.60;37.70;;;;;;5091835;28;19909;-50
2021/01/04 04:41:32;;;;;;;;;;;26.60;37.70;;;;;;5095316;28;20321;-51
2021/01/04 04:44:03;;;;;;;;;;;26.60;37.70;;;;;;5094000;28;19912;-50
2021/01/04 04:46:40;;;;;;;;;;;26.60;37.70;;;;;;5089722;28;19908;-52
2021/01/04 04:49:09;;;;;;;;;;;26.60;37.70;;;;;;5074858;28;19973;-50
2021/01/04 04:51:35;;;;;;;;;;;26.60;37.60;;;;;;5090543;28;20013;-51
2021/01/04 04:54:00;;;;;;;;;;;26.60;37.60;;;;;;5074537;28;19955;-51
2021/01/04 04:56:35;;;;;;;;;;;26.60;37.60;;;;;;5092599;28;19908;-51
2021/01/04 04:59:21;;;;;;;;;;;26.60;37.60;;;;;;5094956;28;20092;-53
2021/01/04 05:01:50;;;;;;;;;;;26.60;37.50;;;;;;5054756;28;19913;-52
2021/01/04 05:04:41;;;;;;;;;;;26.60;37.50;;;;;;5054679;28;20313;-47
2021/01/04 05:07:26;;;;;;;;;;;26.60;37.50;;;;;;5053056;28;19916;-50
2021/01/04 05:09:55;;;;;;;;;;;26.60;37.60;;;;;;5054400;28;19921;-51
2021/01/04 05:12:26;;;;;;;;;;;26.60;37.50;;;;;;5069565;28;20275;-51
2021/01/04 05:15:00;;;;;;;;;;;26.60;37.50;;;;;;5069562;28;19981;-50
2021/01/04 05:17:26;;;;;;;;;;;26.60;37.60;;;;;;5075179;28;19912;-51
2021/01/04 05:19:51;;;;;;;;;;;26.60;37.60;;;;;;5073906;28;19915;-50
2021/01/04 05:22:20;;;;;;;;;;;26.60;37.50;;;;;;5073938;28;19909;-50
2021/01/04 05:25:04;;;;;;;;;;;26.60;37.50;;;;;;5074011;28;19916;-50
2021/01/04 05:27:48;;;;;;;;;;;26.60;37.50;;;;;;5073571;28;19908;-50
2021/01/04 05:30:19;;;;;;;;;;;26.60;37.50;;;;;;5076055;28;19929;-51
2021/01/04 05:32:53;;;;;;;;;;;26.60;37.60;;;;;;5092048;28;19954;-50
2021/01/04 05:35:19;;;;;;;;;;;26.60;37.50;;;;;;5094259;28;19966;-51
2021/01/04 05:37:44;;;;;;;;;;;26.60;37.50;;;;;;5092746;28;19912;-51
2021/01/04 05:40:19;;;;;;;;;;;26.60;37.50;;;;;;5094042;28;19965;-48
2021/01/04 05:42:53;;;;;;;;;;;26.60;37.70;;;;;;5094010;28;19973;-48
2021/01/04 05:45:39;;;;;;;;;;;26.50;38.00;;;;;;5082257;28;19991;-59
2021/01/04 05:48:13;;;;;;;;;;;26.40;35.60;;;;;;5090954;28;19916;-58
2021/01/04 05:50:48;;;;;;;;;;;26.40;35.80;;;;;;5093631;28;19916;-59
2021/01/04 05:53:13;;;;;;;;;;;26.40;35.60;;;;;;5093926;28;19915;-58
2021/01/04 05:55:39;;;;;;;;;;;26.40;35.30;;;;;;5093642;28;19912;-59
2021/01/04 05:58:12;;;;;;;;;;;26.40;35.10;;;;;;5093915;28;19908;-57
2021/01/04 06:00:37;;;;;;;;;;;26.40;34.90;;;;;;5093512;28;20357;-57
2021/01/04 06:03:03;;;;;;;;;;;26.50;34.90;;;;;;5073790;28;20311;-59
2021/01/04 06:05:29;;;;;;;;;;;26.40;34.70;;;;;;5073524;28;19978;-58
2021/01/04 06:07:54;;;;;;;;;;;26.40;34.70;;;;;;5073306;28;20011;-58
2021/01/04 06:10:21;;;;;;;;;;;26.40;34.70;;;;;;5073076;28;19909;-59
2021/01/04 06:12:47;;;;;;;;;;;26.40;34.60;;;;;;5073481;28;19970;-58
2021/01/04 06:15:12;;;;;;;;;;;26.40;31.40;;;;;;5078342;28;19962;-58
2021/01/04 06:17:39;;;;;;;;;;;26.30;33.10;;;;;;5068729;28;19994;-57
2021/01/04 06:20:18;;;;;;;;;;;26.20;33.20;;;;;;5062119;28;19967;-57
2021/01/04 06:22:43;;;;;;;;;;;26.00;33.90;;;;;;5088853;28;19913;-57
2021/01/04 06:25:09;;;;;;;;;;;25.90;34.30;;;;;;5072924;28;19920;-57
2021/01/04 06:27:37;;;;;;;;;;;26.10;34.10;;;;;;5088609;28;20010;-57
2021/01/04 06:30:15;;;;;;;;;;;26.30;34.30;;;;;;5073587;28;20438;-56
2021/01/04 06:32:40;;;;;;;;;;;26.40;34.40;;;;;;5088427;28;19912;-61
2021/01/04 06:35:20;;;;;;;;;;;26.50;34.50;;;;;;5093243;28;19915;-62
2021/01/04 06:37:46;;;;;;;;;;;26.60;34.60;;;;;;5093017;28;20301;-61
2021/01/04 06:40:20;;;;;;;;;;;26.60;34.80;;;;;;5093007;28;19915;-57
2021/01/04 06:42:46;;;;;;;;;;;26.60;34.80;;;;;;5095296;28;20000;-62
2021/01/04 06:45:16;;;;;;;;;;;26.60;34.80;;;;;;5088568;28;19959;-61
2021/01/04 06:47:41;;;;;;;;;;;26.70;34.80;;;;;;5075015;28;19999;-58
2021/01/04 06:50:07;;;;;;;;;;;26.70;35.00;;;;;;5058537;28;20482;-64
2021/01/04 06:52:51;;;;;;;;;;;26.60;34.90;;;;;;5086631;28;19920;-68
2021/01/04 06:55:22;;;;;;;;;;;26.60;35.00;;;;;;5087882;28;19930;-64
2021/01/04 06:58:00;;;;;;;;;;;26.60;34.80;;;;;;5099485;28;19908;-59
2021/01/04 07:00:32;;;;;;;;;;;26.70;34.70;;;;;;5083081;28;19985;-56
2021/01/04 07:02:58;;;;;;;;;;;26.70;34.60;;;;;;5094868;28;20278;-50
2021/01/04 07:05:26;;;;;;;;;;;26.70;34.50;;;;;;5079442;28;19909;-55
2021/01/04 07:08:07;;;;;;;;;;;26.80;34.50;;;;;;5085945;28;19913;-60
2021/01/04 07:10:52;;;;;;;;;;;26.80;34.40;;;;;;5079109;28;20348;-53
2021/01/04 07:13:26;;;;;;;;;;;26.80;34.40;;;;;;5075081;28;19908;-56
2021/01/04 07:16:10;;;;;;;;;;;26.80;34.80;;;;;;5094773;28;19908;-66
2021/01/04 07:18:39;;;;;;;;;;;26.80;34.90;;;;;;5079064;28;19912;-60
2021/01/04 07:21:13;;;;;;;;;;;26.80;34.90;;;;;;5079270;28;19954;-56
2021/01/04 07:23:44;;;;;;;;;;;26.70;34.80;;;;;;5084777;28;19913;-58
2021/01/04 07:26:12;;;;;;;;;;;26.70;34.70;;;;;;5099445;28;19908;-58
2021/01/04 07:28:47;;;;;;;;;;;26.70;34.70;;;;;;5097835;28;19920;-52
2021/01/04 07:31:31;;;;;;;;;;;26.70;34.60;;;;;;5098273;28;19908;-53
2021/01/04 07:34:26;;;;;;;;;;;26.80;34.60;;;;;;5099521;28;19908;-59
2021/01/04 07:36:53;;;;;;;;;;;26.70;34.60;;;;;;5079159;28;20432;-63
2021/01/04 07:39:28;;;;;;;;;;;26.80;34.60;;;;;;5097416;28;19935;-55
2021/01/04 07:42:07;;;;;;;;;;;26.80;34.70;;;;;;5099361;28;19908;-59
2021/01/04 07:44:38;;;;;;;;;;;26.80;34.80;;;;;;5097834;28;19920;-61
2021/01/04 07:47:09;;;;;;;;;;;26.70;34.80;;;;;;5099096;28;19953;-61
2021/01/04 07:49:50;;;;;;;;;;;26.50;35.10;;;;;;5099302;28;20320;-61
2021/01/04 07:52:22;;;;;;;;;;;26.60;35.00;;;;;;5098071;28;19915;-66
2021/01/04 07:54:48;;;;;;;;;;;;;;;;;;5077177;28;19912;-62
2021/01/04 07:57:13;;;;;;;;;;;;;;;;;;5075223;28;20275;-58
2021/01/04 07:59:39;;;;;;;;;;;24.70;26.50;;;;;;5075044;28;19923;-61
2021/01/04 08:02:16;;;;;;;;;;;24.20;27.00;;;;;;5082961;28;20013;-59
2021/01/04 08:04:47;;;;;;;;;;;24.10;25.00;;;;;;5094516;28;19923;-64
2021/01/04 08:07:13;;;;;;;;;;;;;;;;;;5095043;28;19934;-70
2021/01/04 08:09:58;;;;;;;;;;;24.10;23.40;;;;;;5094633;28;20343;-61
2021/01/04 08:12:47;;;;;;;;;;;24.10;23.60;;;;;;5093954;28;20337;-61
2021/01/04 08:15:31;;;;;;;;;;;23.90;23.40;;;;;;5092903;28;20015;-62
2021/01/04 08:18:06;;;;;;;;;;;23.80;24.90;;;;;;5076099;28;20066;-60
2021/01/04 08:20:32;;;;;;;;;;;24.30;26.60;;;;;;5075062;28;19913;-60
2021/01/04 08:23:06;;;;;;;;;;;24.80;26.70;;;;;;5090954;28;19915;-71
2021/01/04 08:25:35;;;;;;;;;;;25.20;26.90;;;;;;5075205;28;19917;-52
2021/01/04 08:28:13;;;;;;;;;;;25.40;26.90;;;;;;5074884;28;19921;-60
2021/01/04 08:30:40;;;;;;;;;;;25.70;27.00;;;;;;5077879;28;19923;-57
2021/01/04 08:33:05;;;;;;;;;;;25.90;27.50;;;;;;5094130;28;19909;-62
2021/01/04 08:35:35;;;;;;;;;;;26.00;27.20;;;;;;5094993;28;19919;-63
2021/01/04 08:38:19;;;;;;;;;;;26.10;27.40;;;;;;5095113;28;19984;-62
2021/01/04 08:40:54;;;;;;;;;;;26.20;27.30;;;;;;5094958;28;20005;-70
2021/01/04 08:43:28;;;;;;;;;;;26.30;28.10;;;;;;5095052;28;20000;-67
2021/01/04 08:45:54;;;;;;;;;;;26.40;27.80;;;;;;5091519;28;19957;-75
2021/01/04 08:48:21;;;;;;;;;;;26.40;27.80;;;;;;5079713;28;19916;-71
2021/01/04 08:50:59;;;;;;;;;;;26.50;28.00;;;;;;5074506;28;19950;-70
2021/01/04 08:53:25;;;;;;;;;;;26.60;28.10;;;;;;5074843;28;20006;-64
2021/01/04 08:55:52;;;;;;;;;;;26.50;28.20;;;;;;5074649;28;19994;-72
2021/01/04 08:58:21;;;;;;;;;;;26.60;28.40;;;;;;5089945;28;19913;-60
2021/01/04 09:01:00;;;;;;;;;;;26.60;28.50;;;;;;5075326;28;19913;-60
2021/01/04 09:03:27;;;;;;;;;;;26.70;28.60;;;;;;5089886;28;20435;-66
2021/01/04 09:05:52;;;;;;;;;;;26.70;28.70;;;;;;5090035;28;19970;-67
2021/01/04 09:08:27;;;;;;;;;;;26.70;28.80;;;;;;5073863;28;19916;-71
2021/01/04 09:10:52;;;;;;;;;;;26.80;29.00;;;;;;5069456;28;19923;-51
2021/01/04 09:13:29;;;;;;;;;;;26.80;29.10;;;;;;5069861;28;19913;-65
2021/01/04 09:15:54;;;;;;;;;;;26.80;29.30;;;;;;5069526;28;19909;-67
2021/01/04 09:18:26;;;;;;;;;;;26.80;29.40;;;;;;5054263;28;19913;-68
2021/01/04 09:20:54;;;;;;;;;;;26.90;29.60;;;;;;5053903;28;19936;-60
2021/01/04 09:23:24;;;;;;;;;;;26.90;29.70;;;;;;5056729;28;19924;-61
2021/01/04 09:25:54;;;;;;;;;;;26.90;29.80;;;;;;5094212;28;19983;-67
2021/01/04 09:28:20;;;;;;;;;;;26.90;29.90;;;;;;5093809;28;19927;-67
2021/01/04 09:30:45;;;;;;;;;;;26.90;30.00;;;;;;5092823;28;20273;-59
2021/01/04 09:33:12;;;;;;;;;;;26.90;30.00;;;;;;5090529;28;19916;-61
2021/01/04 09:35:38;;;;;;;;;;;26.90;30.00;;;;;;5092528;28;19908;-64
2021/01/04 09:38:29;;;;;;;;;;;26.90;30.60;;;;;;5094135;28;19919;-65
2021/01/04 09:40:56;;;;;;;;;;;26.90;30.90;;;;;;5091566;28;19936;-65
2021/01/04 09:43:22;;;;;;;;;;;26.80;30.60;;;;;;5092547;28;19958;-62
2021/01/04 09:45:48;;;;;;;;;;;26.70;30.90;;;;;;5093775;28;19953;-62
2021/01/04 09:48:34;;;;;;;;;;;26.60;31.00;;;;;;5078229;28;20015;-68
2021/01/04 09:51:00;;;;;;;;;;;26.60;31.10;;;;;;5073097;28;19908;-62
2021/01/04 09:53:32;;;;;;;;;;;26.60;31.20;;;;;;5073877;28;19909;-64
2021/01/04 09:56:00;;;;;;;;;;;26.60;31.20;;;;;;5073409;28;19967;-67
2021/01/04 09:58:25;;;;;;;;;;;26.60;31.40;;;;;;5089385;28;19999;-74
2021/01/04 10:01:01;;;;;;;;;;;26.60;31.50;;;;;;5073435;28;20001;-59
2021/01/04 10:03:27;;;;;;;;;;;26.60;32.00;;;;;;5085751;28;19912;-72
2021/01/04 10:05:53;;;;;;;;;;;26.60;31.70;;;;;;5073128;28;20362;-61
2021/01/04 10:08:22;;;;;;;;;;;26.70;31.90;;;;;;5088898;28;20029;-56
2021/01/04 10:10:54;;;;;;;;;;;26.60;32.00;;;;;;5077246;28;20335;-63
2021/01/04 10:13:19;;;;;;;;;;;26.60;32.10;;;;;;5068747;28;19928;-65
2021/01/04 10:15:45;;;;;;;;;;;26.70;32.10;;;;;;5053382;28;19908;-60
2021/01/04 10:18:16;;;;;;;;;;;26.70;32.30;;;;;;5067875;28;20147;-57
2021/01/04 10:20:46;;;;;;;;;;;26.70;32.30;;;;;;5052859;28;19959;-56
2021/01/04 10:23:14;;;;;;;;;;;26.60;32.30;;;;;;5068667;28;19913;-62
2021/01/04 10:25:45;;;;;;;;;;;26.70;32.40;;;;;;5068900;28;19916;-63
2021/01/04 10:28:13;;;;;;;;;;;26.70;32.50;;;;;;5052693;28;19925;-64
2021/01/04 10:30:38;;;;;;;;;;;26.70;32.50;;;;;;5052951;28;19916;-56
2021/01/04 10:33:08;;;;;;;;;;;26.70;32.60;;;;;;5052989;28;20351;-70
2021/01/04 10:35:33;;;;;;;;;;;26.70;32.50;;;;;;5052660;28;20378;-67
2021/01/04 10:38:04;;;;;;;;;;;26.70;32.60;;;;;;5052711;28;19912;-69
2021/01/04 10:40:29;;;;;;;;;;;26.70;32.70;;;;;;5078229;28;19916;-70
2021/01/04 10:43:02;;;;;;;;;;;26.70;32.70;;;;;;5091555;28;19969;-70
2021/01/04 10:45:34;;;;;;;;;;;26.70;32.80;;;;;;5093124;28;19908;-69
2021/01/04 10:48:03;;;;;;;;;;;26.60;33.10;;;;;;5092799;28;20377;-67
2021/01/04 10:50:35;;;;;;;;;;;26.50;32.60;;;;;;5091541;28;19923;-67
2021/01/04 10:53:02;;;;;;;;;;;26.60;32.70;;;;;;5092754;28;20350;-65
2021/01/04 10:55:28;;;;;;;;;;;26.60;32.70;;;;;;5089224;28;20374;-64
2021/01/04 10:57:56;;;;;;;;;;;26.60;32.70;;;;;;5093000;28;19909;-61
2021/01/04 11:00:23;;;;;;;;;;;26.60;32.70;;;;;;5088693;28;20634;-61
2021/01/04 11:02:49;;;;;;;;;;;26.60;32.60;;;;;;5088078;28;19995;-60
2021/01/04 11:05:15;;;;;;;;;;;26.60;32.50;;;;;;5072747;28;20051;-68
2021/01/04 11:07:40;;;;;;;;;;;26.60;32.60;;;;;;5072642;28;19912;-61
2021/01/04 11:10:22;;;;;;;;;;;26.60;32.40;;;;;;5086302;28;19924;-61
2021/01/04 11:12:49;;;;;;;;;;;26.60;32.40;;;;;;5092725;28;19908;-71
2021/01/04 11:15:21;;;;;;;;;;;26.60;32.20;;;;;;5092597;28;20247;-71
2021/01/04 11:17:54;;;;;;;;;;;26.70;32.30;;;;;;5080454;28;19913;-67
2021/01/04 11:20:20;;;;;;;;;;;26.70;32.20;;;;;;5072582;28;19915;-69
2021/01/04 11:22:45;;;;;;;;;;;26.70;32.10;;;;;;5072218;28;19909;-67
2021/01/04 11:25:11;;;;;;;;;;;26.80;32.00;;;;;;5072391;28;19912;-66
2021/01/04 11:27:37;;;;;;;;;;;26.80;32.00;;;;;;5072289;28;19912;-59
2021/01/04 11:30:03;;;;;;;;;;;26.80;31.90;;;;;;5073290;28;20321;-60
2021/01/04 11:32:28;;;;;;;;;;;26.80;32.00;;;;;;5078429;28;19912;-59
2021/01/04 11:34:55;;;;;;;;;;;26.60;32.20;;;;;;5076212;28;19917;-50
2021/01/04 11:37:21;;;;;;;;;;;26.60;32.20;;;;;;5076194;28;19950;-53
2021/01/04 11:39:46;;;;;;;;;;;26.60;32.20;;;;;;5075790;28;20348;-53
2021/01/04 11:42:11;;;;;;;;;;;26.60;32.00;;;;;;5076030;28;19983;-53
2021/01/04 11:44:37;;;;;;;;;;;26.60;32.20;;;;;;5075983;28;20437;-53
2021/01/04 11:47:03;;;;;;;;;;;26.60;32.10;;;;;;5083143;28;19908;-52
2021/01/04 11:49:28;;;;;;;;;;;26.60;31.90;;;;;;5081563;28;20286;-51
2021/01/04 11:51:54;;;;;;;;;;;26.60;32.00;;;;;;5075919;28;19912;-50
2021/01/04 11:54:19;;;;;;;;;;;26.60;32.00;;;;;;5075795;28;20373;-49
2021/01/04 11:56:45;;;;;;;;;;;26.60;31.90;;;;;;5075556;28;19948;-51
2021/01/04 11:59:11;;;;;;;;;;;26.60;31.80;;;;;;5075379;28;20397;-50
2021/01/04 12:01:37;;;;;;;;;;;26.60;32.10;;;;;;5076910;28;19917;-58
2021/01/04 12:04:03;;;;;;;;;;;26.50;32.30;;;;;;5075424;28;20301;-59
2021/01/04 12:06:28;;;;;;;;;;;26.50;32.40;;;;;;5075325;28;19909;-63
2021/01/04 12:08:53;;;;;;;;;;;26.40;32.50;;;;;;5075424;28;19923;-65
2021/01/04 12:11:21;;;;;;;;;;;26.40;32.70;;;;;;5075369;28;19958;-65
2021/01/04 12:13:50;;;;;;;;;;;26.60;32.80;;;;;;5075532;28;19951;-74
2021/01/04 12:16:16;;;;;;;;;;;26.70;32.90;;;;;;5094308;28;20373;-65
2021/01/04 12:18:41;;;;;;;;;;;26.70;33.40;;;;;;5094162;28;19920;-62
2021/01/04 12:21:07;;;;;;;;;;;26.70;33.10;;;;;;5095655;28;19920;-67
2021/01/04 12:23:32;;;;;;;;;;;26.70;33.20;;;;;;5084981;28;19920;-58
2021/01/04 12:25:58;;;;;;;;;;;26.70;33.20;;;;;;5075062;28;20398;-54
2021/01/04 12:28:23;;;;;;;;;;;26.80;33.10;;;;;;5074627;28;19921;-64
2021/01/04 12:30:50;;;;;;;;;;;26.70;33.30;;;;;;5074427;28;20405;-64
2021/01/04 12:33:16;;;;;;;;;;;26.80;33.20;;;;;;5074757;28;19934;-50
2021/01/04 12:35:41;;;;;;;;;;;26.70;33.30;;;;;;5074856;28;19923;-53
2021/01/04 12:38:07;;;;;;;;;;;26.70;33.30;;;;;;5083181;28;19951;-49
2021/01/04 12:40:33;;;;;;;;;;;26.80;33.30;;;;;;5094521;28;20002;-50
2021/01/04 12:42:58;;;;;;;;;;;26.80;33.40;;;;;;5094768;28;20255;-53
2021/01/04 12:45:24;;;;;;;;;;;26.80;33.40;;;;;;5095109;28;19916;-58
2021/01/04 12:47:50;;;;;;;;;;;26.80;33.40;;;;;;5094793;28;19953;-58
2021/01/04 12:50:15;;;;;;;;;;;26.80;33.40;;;;;;5094669;28;19961;-59
2021/01/04 12:52:41;;;;;;;;;;;26.80;33.40;;;;;;5087409;28;19916;-59
2021/01/04 12:55:07;;;;;;;;;;;26.80;33.50;;;;;;5074463;28;20028;-59
2021/01/04 12:57:32;;;;;;;;;;;26.80;33.60;;;;;;5074302;28;19916;-60
2021/01/04 12:59:58;;;;;;;;;;;26.80;33.50;;;;;;5074569;28;19908;-62
2021/01/04 13:02:23;;;;;;;;;;;26.80;33.50;;;;;;5074427;28;19913;-56
2021/01/04 13:04:49;;;;;;;;;;;26.80;33.50;;;;;;5074229;28;20256;-55
2021/01/04 13:07:14;;;;;;;;;;;26.80;33.60;;;;;;5079738;28;19954;-60
2021/01/04 13:09:40;;;;;;;;;;;26.80;33.60;;;;;;5094344;28;19916;-56
2021/01/04 13:12:06;;;;;;;;;;;26.90;33.80;;;;;;5092974;28;20329;-56
2021/01/04 13:14:31;;;;;;;;;;;26.80;33.70;;;;;;5094247;28;19908;-59
2021/01/04 13:16:57;;;;;;;;;;;26.80;33.70;;;;;;5094506;28;20007;-59
2021/01/04 13:19:27;;;;;;;;;;;26.80;33.70;;;;;;5094408;28;20342;-58
2021/01/04 13:21:54;;;;;;;;;;;26.80;33.70;;;;;;5094376;28;19981;-61
2021/01/04 13:24:19;;;;;;;;;;;26.80;33.70;;;;;;5094106;28;19908;-61
2021/01/04 13:26:46;;;;;;;;;;;26.80;33.70;;;;;;5086592;28;19913;-60
2021/01/04 13:29:12;;;;;;;;;;;26.80;33.70;;;;;;5082157;28;19931;-54
2021/01/04 13:31:38;;;;;;;;;;;26.80;33.80;;;;;;5094129;28;19916;-54
2021/01/04 13:34:03;;;;;;;;;;;26.80;34.00;;;;;;5093886;28;19931;-53
2021/01/04 13:36:29;;;;;;;;;;;26.80;34.00;;;;;;5094212;28;19955;-50
2021/01/04 13:38:54;;;;;;;;;;;26.80;34.00;;;;;;5093736;28;19967;-59
2021/01/04 13:41:20;;;;;;;;;;;26.80;34.00;;;;;;5091862;28;19961;-56
2021/01/04 13:43:45;;;;;;;;;;;26.80;34.00;;;;;;5073671;28;19912;-62
2021/01/04 13:46:11;;;;;;;;;;;26.80;33.90;;;;;;5073480;28;19917;-62
2021/01/04 13:48:37;;;;;;;;;;;26.80;33.80;;;;;;5088852;28;19917;-61
2021/01/04 13:51:03;;;;;;;;;;;26.80;33.90;;;;;;5084902;28;19908;-59
2021/01/04 13:53:28;;;;;;;;;;;26.80;33.90;;;;;;5092803;28;20447;-62
2021/01/04 13:55:54;;;;;;;;;;;26.80;33.90;;;;;;5093782;28;19943;-58
2021/01/04 13:58:19;;;;;;;;;;;26.80;33.80;;;;;;5093369;28;19908;-59
2021/01/04 14:00:45;;;;;;;;;;;26.80;33.80;;;;;;5093349;28;19912;-61
2021/01/04 14:03:10;;;;;;;;;;;26.80;33.80;;;;;;5093658;28;19908;-61
2021/01/04 14:05:36;;;;;;;;;;;26.80;33.90;;;;;;5083281;28;19912;-60
2021/01/04 14:08:01;;;;;;;;;;;26.90;34.60;;;;;;5075985;28;19916;-59
2021/01/04 14:10:27;;;;;;;;;;;26.80;34.00;;;;;;5093283;28;19963;-58
2021/01/04 14:12:54;;;;;;;;;;;26.80;34.00;;;;;;5093511;28;19908;-58
2021/01/04 14:15:19;;;;;;;;;;;26.80;34.10;;;;;;5093512;28;20302;-60
2021/01/04 14:17:45;;;;;;;;;;;26.80;34.10;;;;;;5093284;28;19908;-55
2021/01/04 14:20:10;;;;;;;;;;;26.80;34.10;;;;;;5093055;28;19908;-58
2021/01/04 14:22:37;;;;;;;;;;;26.80;34.20;;;;;;5091481;28;19909;-59
2021/01/04 14:25:03;;;;;;;;;;;26.80;34.10;;;;;;5072932;28;19912;-50
2021/01/04 14:27:28;;;;;;;;;;;26.80;34.10;;;;;;5072803;28;19915;-59
2021/01/04 14:29:54;;;;;;;;;;;26.80;34.20;;;;;;5072576;28;20350;-54
2021/01/04 14:32:20;;;;;;;;;;;26.80;34.10;;;;;;5072792;28;19916;-62